createdAt,value
2022-08-26T00:00:41.864Z,0.00
2022-08-26T00:05:40.544Z,0.00
2022-08-26T00:10:40.473Z,0.00
2022-08-26T00:15:40.447Z,0.00
2022-08-26T00:20:40.335Z,0.00
2022-08-26T00:25:42.487Z,0.00
2022-08-26T00:30:40.199Z,0.00
2022-08-26T00:35:40.137Z,0.00
2022-08-26T00:40:41.077Z,0.00
2022-08-26T00:45:40.044Z,0.00
2022-08-26T00:50:39.939Z,0.00
2022-08-26T00:55:39.891Z,0.00
2022-08-26T01:00:39.843Z,0.00
2022-08-26T01:05:39.942Z,0.00
2022-08-26T01:10:39.711Z,0.00
2022-08-26T01:15:39.611Z,0.00
2022-08-26T01:20:39.571Z,0.00
2022-08-26T01:25:39.515Z,0.00
2022-08-26T01:30:39.435Z,0.00
2022-08-26T01:35:39.367Z,0.00
2022-08-26T01:40:39.357Z,0.00
2022-08-26T01:45:39.271Z,0.00
2022-08-26T01:50:39.177Z,0.00
2022-08-26T01:55:39.095Z,0.00
2022-08-26T02:00:39.061Z,0.00
2022-08-26T02:05:38.967Z,0.00
2022-08-26T02:10:39.137Z,0.00
2022-08-26T02:15:38.837Z,0.00
2022-08-26T02:20:38.767Z,0.00
2022-08-26T02:25:38.696Z,0.00
2022-08-26T02:30:38.629Z,0.00
2022-08-26T02:35:38.578Z,0.00
2022-08-26T02:40:38.512Z,0.00
2022-08-26T02:45:38.452Z,0.00
2022-08-26T02:50:38.399Z,0.00
2022-08-26T02:55:38.327Z,0.00
2022-08-26T03:00:38.268Z,0.00
2022-08-26T03:05:38.184Z,0.00
2022-08-26T03:10:38.103Z,0.00
2022-08-26T03:15:38.067Z,0.00
2022-08-26T03:20:37.984Z,0.00
2022-08-26T03:25:37.925Z,0.00
2022-08-26T03:30:37.857Z,0.00
2022-08-26T03:35:37.807Z,0.00
2022-08-26T03:40:37.718Z,0.00
2022-08-26T03:45:37.665Z,0.00
2022-08-26T03:50:37.595Z,0.00
2022-08-26T03:55:37.528Z,0.00
2022-08-26T04:00:37.458Z,5.62
2022-08-26T04:05:37.399Z,11.25
2022-08-26T04:10:37.321Z,16.88
2022-08-26T04:15:37.282Z,28.12
2022-08-26T04:20:37.454Z,33.75
2022-08-26T04:25:37.141Z,45.00
2022-08-26T04:30:37.092Z,56.25
2022-08-26T04:35:37.012Z,78.75
2022-08-26T04:40:36.935Z,95.62
2022-08-26T04:45:36.883Z,106.88
2022-08-26T04:50:36.815Z,118.12
2022-08-26T04:55:38.180Z,129.38
2022-08-26T05:00:36.714Z,118.12
2022-08-26T05:05:36.635Z,112.50
2022-08-26T05:10:36.545Z,135.00
2022-08-26T05:15:36.530Z,163.12
2022-08-26T05:20:36.410Z,174.38
2022-08-26T05:25:36.458Z,219.38
2022-08-26T05:30:36.288Z,270.00
2022-08-26T05:35:36.229Z,382.50
2022-08-26T05:40:36.221Z,343.12
2022-08-26T05:45:36.104Z,410.62
2022-08-26T05:50:36.020Z,483.75
2022-08-26T05:55:36.001Z,613.12
2022-08-26T06:00:35.918Z,613.12
2022-08-26T06:05:39.064Z,1198.12
2022-08-26T06:10:36.063Z,703.12
2022-08-26T06:15:35.775Z,1051.88
2022-08-26T06:20:35.675Z,1726.88
2022-08-26T06:25:35.570Z,1400.62
2022-08-26T06:30:35.674Z,2019.38
2022-08-26T06:35:35.446Z,1698.75
2022-08-26T06:40:35.461Z,2981.25
2022-08-26T06:45:35.310Z,1687.50
2022-08-26T06:50:35.255Z,2441.25
2022-08-26T06:55:35.171Z,2728.12
2022-08-26T07:00:35.146Z,2947.50
2022-08-26T07:05:35.065Z,3521.25
2022-08-26T07:10:35.024Z,2610.00
2022-08-26T07:15:34.994Z,1530.00
2022-08-26T07:20:34.887Z,2508.75
2022-08-26T07:25:34.816Z,2295.00
2022-08-26T07:30:34.743Z,2317.50
2022-08-26T07:35:35.708Z,3988.12
2022-08-26T07:40:34.688Z,2289.38
2022-08-26T07:45:34.584Z,3864.38
2022-08-26T07:50:49.001Z,3926.25
2022-08-26T07:55:35.484Z,3791.25
2022-08-26T08:00:34.387Z,3600.00
2022-08-26T08:05:34.436Z,3847.50
2022-08-26T08:10:34.279Z,3830.62
2022-08-26T08:15:35.506Z,3858.75
2022-08-26T08:20:34.171Z,4089.38
2022-08-26T08:25:34.105Z,2278.12
2022-08-26T08:30:35.080Z,2030.62
2022-08-26T08:35:33.965Z,2064.38
2022-08-26T08:40:33.976Z,2092.50
2022-08-26T08:45:36.652Z,2165.62
2022-08-26T08:50:33.790Z,2131.88
2022-08-26T08:55:33.786Z,2148.75
2022-08-26T09:00:36.635Z,1130.62
2022-08-26T09:05:34.637Z,1125.00
2022-08-26T09:10:33.565Z,1091.25
2022-08-26T09:15:33.482Z,1006.88
2022-08-26T09:20:33.416Z,911.25
2022-08-26T09:25:33.368Z,444.38
2022-08-26T09:30:33.357Z,354.38
2022-08-26T09:35:33.257Z,315.00
2022-08-26T09:40:34.539Z,286.88
2022-08-26T09:45:33.157Z,247.50
2022-08-26T09:50:33.052Z,230.62
2022-08-26T09:55:32.971Z,247.50
2022-08-26T10:00:32.913Z,253.12
2022-08-26T10:05:32.875Z,270.00
2022-08-26T10:10:32.785Z,303.75
2022-08-26T10:15:32.736Z,360.00
2022-08-26T10:20:32.663Z,399.38
2022-08-26T10:25:32.638Z,438.75
2022-08-26T10:30:32.567Z,500.62
2022-08-26T10:35:32.461Z,607.50
2022-08-26T10:40:32.496Z,663.75
2022-08-26T10:45:32.409Z,697.50
2022-08-26T10:50:32.462Z,776.25
2022-08-26T10:55:34.695Z,871.88
2022-08-26T11:00:32.177Z,849.38
2022-08-26T11:05:32.106Z,697.50
2022-08-26T11:10:32.059Z,708.75
2022-08-26T11:15:31.996Z,922.50
2022-08-26T11:20:31.908Z,967.50
2022-08-26T11:25:31.822Z,776.25
2022-08-26T11:30:31.762Z,742.50
2022-08-26T11:35:31.772Z,798.75
2022-08-26T11:40:31.775Z,916.88
2022-08-26T11:45:31.648Z,922.50
2022-08-26T11:50:31.515Z,838.12
2022-08-26T11:55:31.637Z,770.62
2022-08-26T12:00:33.844Z,680.62
2022-08-26T12:05:31.414Z,652.50
2022-08-26T12:10:31.259Z,618.75
2022-08-26T12:15:31.242Z,568.12
2022-08-26T12:20:31.162Z,545.62
2022-08-26T12:25:36.022Z,545.62
2022-08-26T12:30:32.054Z,511.88
2022-08-26T12:35:30.952Z,506.25
2022-08-26T12:40:31.067Z,483.75
2022-08-26T12:45:30.885Z,393.75
2022-08-26T12:50:30.798Z,410.62
2022-08-26T12:55:30.709Z,455.62
2022-08-26T13:00:30.662Z,489.38
2022-08-26T13:05:30.572Z,489.38
2022-08-26T13:10:31.141Z,478.12
2022-08-26T13:15:30.475Z,466.88
2022-08-26T13:20:30.424Z,461.25
2022-08-26T13:25:30.336Z,393.75
2022-08-26T13:30:30.246Z,393.75
2022-08-26T13:35:30.206Z,405.00
2022-08-26T13:40:34.386Z,438.75
2022-08-26T13:45:30.079Z,421.88
2022-08-26T13:50:29.999Z,421.88
2022-08-26T13:55:29.962Z,450.00
2022-08-26T14:00:29.933Z,483.75
2022-08-26T14:05:30.040Z,495.00
2022-08-26T14:10:29.763Z,517.50
2022-08-26T14:15:29.677Z,528.75
2022-08-26T14:20:29.621Z,635.62
2022-08-26T14:25:29.559Z,725.62
2022-08-26T14:30:29.509Z,776.25
2022-08-26T14:35:29.420Z,736.88
2022-08-26T14:40:29.422Z,759.38
2022-08-26T14:45:29.378Z,663.75
2022-08-26T14:50:29.256Z,731.25
2022-08-26T14:55:29.177Z,658.12
2022-08-26T15:00:29.107Z,590.62
2022-08-26T15:05:29.069Z,545.62
2022-08-26T15:10:29.268Z,506.25
2022-08-26T15:15:28.928Z,500.62
2022-08-26T15:20:28.882Z,523.12
2022-08-26T15:25:28.795Z,523.12
2022-08-26T15:30:28.729Z,427.50
2022-08-26T15:35:28.662Z,348.75
2022-08-26T15:40:28.657Z,309.38
2022-08-26T15:45:28.536Z,303.75
2022-08-26T15:50:28.476Z,320.62
2022-08-26T15:55:28.426Z,236.25
2022-08-26T16:00:28.406Z,202.50
2022-08-26T16:05:28.316Z,191.25
2022-08-26T16:10:28.230Z,146.25
2022-08-26T16:15:28.400Z,112.50
2022-08-26T16:20:28.236Z,146.25
2022-08-26T16:25:28.339Z,129.38
2022-08-26T16:30:28.056Z,129.38
2022-08-26T16:35:28.008Z,135.00
2022-08-26T16:40:27.895Z,123.75
2022-08-26T16:45:28.345Z,112.50
2022-08-26T16:50:27.998Z,90.00
2022-08-26T16:55:27.658Z,84.38
2022-08-26T17:00:27.587Z,90.00
2022-08-26T17:05:27.542Z,95.62
2022-08-26T17:10:27.461Z,90.00
2022-08-26T17:15:27.471Z,84.38
2022-08-26T17:20:27.663Z,67.50
2022-08-26T17:25:29.395Z,61.88
2022-08-26T17:30:27.527Z,56.25
2022-08-26T17:35:27.135Z,45.00
2022-08-26T17:40:27.173Z,33.75
2022-08-26T17:45:26.996Z,28.12
2022-08-26T17:50:26.929Z,16.88
2022-08-26T17:55:26.892Z,5.62
2022-08-26T18:00:26.801Z,0.00
2022-08-26T18:05:26.750Z,0.00
2022-08-26T18:10:26.669Z,0.00
2022-08-26T18:15:26.663Z,0.00
2022-08-26T18:20:26.784Z,0.00
2022-08-26T18:25:26.762Z,0.00
2022-08-26T18:30:26.415Z,0.00
2022-08-26T18:35:26.395Z,0.00
2022-08-26T18:40:26.474Z,0.00
2022-08-26T18:45:26.382Z,0.00
2022-08-26T18:50:26.271Z,0.00
2022-08-26T18:55:26.188Z,0.00
2022-08-26T19:00:26.072Z,0.00
2022-08-26T19:05:25.964Z,0.00
2022-08-26T19:10:26.343Z,0.00
2022-08-26T19:15:25.901Z,0.00
2022-08-26T19:20:25.795Z,0.00
2022-08-26T19:25:25.695Z,0.00
2022-08-26T19:30:25.999Z,0.00
2022-08-26T19:35:25.575Z,0.00
2022-08-26T19:40:25.792Z,0.00
2022-08-26T19:45:25.693Z,0.00
2022-08-26T19:50:25.429Z,0.00
2022-08-26T19:55:25.470Z,0.00
2022-08-26T20:00:25.306Z,0.00
2022-08-26T20:05:25.240Z,0.00
2022-08-26T20:10:25.130Z,0.00
2022-08-26T20:15:25.220Z,0.00
2022-08-26T20:20:33.031Z,0.00
2022-08-26T20:25:25.923Z,0.00
2022-08-26T20:30:24.874Z,0.00
2022-08-26T20:35:24.963Z,0.00
2022-08-26T20:40:24.783Z,0.00
2022-08-26T20:45:24.668Z,0.00
2022-08-26T20:50:24.618Z,0.00
2022-08-26T20:55:24.631Z,0.00
2022-08-26T21:00:24.562Z,0.00
2022-08-26T21:05:24.452Z,0.00
2022-08-26T21:10:24.359Z,0.00
2022-08-26T21:15:24.279Z,0.00
2022-08-26T21:20:24.212Z,0.00
2022-08-26T21:25:24.133Z,0.00
2022-08-26T21:30:24.122Z,0.00
2022-08-26T21:35:24.042Z,0.00
2022-08-26T21:40:24.257Z,0.00
2022-08-26T21:45:23.937Z,0.00
2022-08-26T21:50:23.895Z,0.00
2022-08-26T21:55:23.784Z,0.00
2022-08-26T22:00:23.785Z,0.00
2022-08-26T22:05:23.617Z,0.00
2022-08-26T22:10:23.547Z,0.00
2022-08-26T22:15:23.475Z,0.00
2022-08-26T22:20:23.437Z,0.00
2022-08-26T22:25:23.410Z,0.00
2022-08-26T22:30:23.320Z,0.00
2022-08-26T22:35:28.866Z,0.00
2022-08-26T22:40:24.334Z,0.00
2022-08-26T22:45:23.456Z,0.00
2022-08-26T22:50:23.147Z,0.00
2022-08-26T22:55:23.061Z,0.00
2022-08-26T23:00:31.982Z,0.00
2022-08-26T23:05:23.933Z,0.00
2022-08-26T23:10:22.797Z,0.00
2022-08-26T23:15:22.715Z,0.00
2022-08-26T23:20:22.684Z,0.00
2022-08-26T23:25:22.586Z,0.00
2022-08-26T23:30:22.537Z,0.00
2022-08-26T23:35:22.483Z,0.00
2022-08-26T23:40:22.475Z,0.00
2022-08-26T23:45:22.369Z,0.00
2022-08-26T23:50:22.511Z,0.00
2022-08-26T23:55:22.498Z,0.00
